createdAt,value
2016-08-28T04:01:20.284Z,1012.63
2016-08-28T04:01:45.850Z,1012.65
2016-08-28T04:02:11.427Z,1012.66
2016-08-28T04:02:36.998Z,1012.66
2016-08-28T04:03:02.587Z,1012.64
2016-08-28T04:03:28.135Z,1012.69
2016-08-28T04:03:53.691Z,1012.73
2016-08-28T04:04:19.269Z,1012.68
2016-08-28T04:04:44.837Z,1012.7
2016-08-28T04:05:10.405Z,1012.75
2016-08-28T04:05:36.039Z,1012.77
2016-08-28T04:06:01.657Z,1012.77
2016-08-28T04:06:27.238Z,1012.79
2016-08-28T04:06:52.829Z,1012.75
2016-08-28T04:07:18.397Z,1012.76
2016-08-28T04:07:43.971Z,1012.76
2016-08-28T04:08:09.530Z,1012.71
2016-08-28T04:08:35.086Z,1012.66
2016-08-28T04:09:00.757Z,1012.65
2016-08-28T04:09:26.342Z,1012.63
2016-08-28T04:09:51.917Z,1012.62
2016-08-28T04:10:17.478Z,1012.56
2016-08-28T04:10:43.039Z,1012.59
2016-08-28T04:11:08.586Z,1012.56
2016-08-28T04:11:34.124Z,1012.6
2016-08-28T04:11:59.670Z,1012.63
2016-08-28T04:12:25.212Z,1012.69
2016-08-28T04:12:50.761Z,1012.74
2016-08-28T04:13:16.373Z,1012.7
2016-08-28T04:13:41.925Z,1012.69
2016-08-28T04:14:07.467Z,1012.72
2016-08-28T04:14:33.146Z,1012.71
2016-08-28T04:14:58.687Z,1012.76
2016-08-28T04:15:24.266Z,1012.76
2016-08-28T04:15:49.822Z,1012.73
2016-08-28T04:16:15.387Z,1012.78
2016-08-28T04:16:40.958Z,1012.8
2016-08-28T04:17:06.518Z,1012.76
2016-08-28T04:17:32.089Z,1012.78
2016-08-28T04:17:57.659Z,1012.82
2016-08-28T04:18:23.228Z,1012.83
2016-08-28T04:18:48.776Z,1012.84
2016-08-28T04:19:14.332Z,1012.88
2016-08-28T04:19:39.896Z,1012.88
2016-08-28T04:20:05.470Z,1012.9
2016-08-28T04:20:31.007Z,1012.87
2016-08-28T04:20:56.570Z,1012.85
2016-08-28T04:21:22.215Z,1012.86
2016-08-28T04:21:47.868Z,1012.87
2016-08-28T04:22:13.502Z,1012.83
2016-08-28T04:22:39.055Z,1012.83
2016-08-28T04:23:04.679Z,1012.84
2016-08-28T04:23:30.244Z,1012.87
2016-08-28T04:23:55.813Z,1012.8
2016-08-28T04:24:21.387Z,1012.82
2016-08-28T04:24:46.964Z,1012.78
2016-08-28T04:25:12.542Z,1012.76
2016-08-28T04:25:38.120Z,1012.72
2016-08-28T04:26:03.692Z,1012.69
2016-08-28T04:26:29.277Z,1012.74
2016-08-28T04:26:54.844Z,1012.78
2016-08-28T04:27:20.438Z,1012.77
2016-08-28T04:27:45.992Z,1012.82
2016-08-28T04:28:11.590Z,1012.89
2016-08-28T04:28:37.160Z,1012.89
2016-08-28T04:29:35.239Z,1012.97
2016-08-28T04:31:42.581Z,1012.91
2016-08-28T04:32:08.149Z,1012.9
2016-08-28T04:32:33.717Z,1012.88
2016-08-28T04:32:59.285Z,1012.88
2016-08-28T04:33:24.869Z,1012.9
2016-08-28T04:33:50.455Z,1012.87
2016-08-28T04:34:16.079Z,1012.86
2016-08-28T04:34:41.673Z,1012.88
2016-08-28T04:35:07.251Z,1012.88
2016-08-28T04:35:32.828Z,1012.88
2016-08-28T04:35:58.386Z,1012.86
2016-08-28T04:36:23.955Z,1012.89
2016-08-28T04:36:49.513Z,1012.87
2016-08-28T04:37:15.149Z,1012.89
2016-08-28T04:37:40.716Z,1012.94
2016-08-28T04:38:06.291Z,1012.89
2016-08-28T04:38:31.872Z,1012.92
2016-08-28T04:38:57.441Z,1012.93
2016-08-28T04:39:23.011Z,1012.96
2016-08-28T04:39:48.572Z,1012.96
2016-08-28T04:40:14.128Z,1012.92
2016-08-28T04:40:39.732Z,1012.95
2016-08-28T04:41:05.317Z,1012.94
2016-08-28T04:41:30.888Z,1012.93
2016-08-28T04:41:56.527Z,1012.91
2016-08-28T04:42:22.122Z,1012.9
2016-08-28T04:42:47.683Z,1012.89
2016-08-28T04:43:13.262Z,1012.87
2016-08-28T04:43:38.942Z,1012.88
2016-08-28T04:44:04.517Z,1012.88
2016-08-28T04:44:30.091Z,1012.93
2016-08-28T04:44:55.659Z,1012.92
2016-08-28T04:45:21.216Z,1012.9
2016-08-28T04:45:46.789Z,1012.91
2016-08-28T04:46:12.389Z,1012.91
2016-08-28T04:46:37.972Z,1012.98
2016-08-28T04:47:03.559Z,1012.96
2016-08-28T04:47:29.101Z,1012.96
2016-08-28T04:47:54.669Z,1013
2016-08-28T04:48:20.243Z,1012.98
2016-08-28T04:48:45.849Z,1013.01
2016-08-28T04:49:11.422Z,1013
2016-08-28T04:49:36.988Z,1012.97
2016-08-28T04:50:02.650Z,1013.05
2016-08-28T04:50:28.331Z,1013.05
2016-08-28T04:50:53.885Z,1013.08
2016-08-28T04:51:19.455Z,1013.1
2016-08-28T04:52:32.949Z,1013.08
2016-08-28T04:52:58.499Z,1013.06
2016-08-28T04:53:24.078Z,1013.06
2016-08-28T04:53:49.659Z,1013.08
2016-08-28T04:54:15.306Z,1013.06
2016-08-28T04:54:40.886Z,1013.07
2016-08-28T04:55:06.464Z,1012.99
2016-08-28T04:55:32.039Z,1013.04
2016-08-28T04:55:57.603Z,1013.05
2016-08-28T04:56:23.167Z,1013
2016-08-28T04:56:48.727Z,1013.02
2016-08-28T04:57:14.299Z,1013.03
2016-08-28T04:57:39.869Z,1013.04
2016-08-28T04:58:05.461Z,1013.03
2016-08-28T04:58:31.025Z,1013.07
2016-08-28T04:58:56.586Z,1013.03
2016-08-28T04:59:22.152Z,1013.07
2016-08-28T04:59:47.717Z,1013.04
2016-08-28T05:00:13.309Z,1013.05
2016-08-28T05:00:38.863Z,1013.04
2016-08-28T05:01:04.430Z,1013.04
2016-08-28T05:01:30.017Z,1013.01
2016-08-28T05:01:55.575Z,1013
2016-08-28T05:02:21.153Z,1012.98
2016-08-28T05:02:46.699Z,1012.96
2016-08-28T05:03:12.347Z,1012.96
2016-08-28T05:03:37.923Z,1012.92
2016-08-28T05:04:03.504Z,1012.95
2016-08-28T05:04:29.050Z,1012.89
2016-08-28T05:04:54.621Z,1012.93
2016-08-28T05:05:20.189Z,1012.93
2016-08-28T05:05:45.752Z,1012.91
2016-08-28T05:06:11.326Z,1012.91
2016-08-28T05:06:36.867Z,1012.9
2016-08-28T05:07:02.451Z,1012.91
2016-08-28T05:07:28.367Z,1012.9
2016-08-28T05:07:53.596Z,1012.91
2016-08-28T05:08:19.154Z,1012.89
2016-08-28T05:08:44.782Z,1012.88
2016-08-28T05:09:10.454Z,1012.88
2016-08-28T05:09:36.027Z,1012.88
2016-08-28T05:10:01.640Z,1012.9
2016-08-28T05:10:27.203Z,1012.85
2016-08-28T05:10:52.768Z,1012.86
2016-08-28T05:11:18.321Z,1012.84
2016-08-28T05:11:43.955Z,1012.88
2016-08-28T05:12:09.511Z,1012.88
2016-08-28T05:12:35.084Z,1012.85
2016-08-28T05:13:00.650Z,1012.88
2016-08-28T05:13:26.249Z,1012.9
2016-08-28T05:13:51.835Z,1012.88
2016-08-28T05:14:17.409Z,1012.87
2016-08-28T05:14:42.978Z,1012.88
2016-08-28T05:15:08.555Z,1012.91
2016-08-28T05:15:34.128Z,1012.89
2016-08-28T05:15:59.741Z,1012.88
2016-08-28T05:16:25.308Z,1012.83
2016-08-28T05:16:50.906Z,1012.86
2016-08-28T05:17:16.550Z,1012.84
2016-08-28T05:17:42.119Z,1012.84
2016-08-28T05:18:07.784Z,1012.78
2016-08-28T05:18:33.347Z,1012.78
2016-08-28T05:18:58.922Z,1012.78
2016-08-28T05:19:24.486Z,1012.79
2016-08-28T05:19:50.181Z,1012.8
2016-08-28T05:20:15.831Z,1012.85
2016-08-28T05:20:41.398Z,1012.9
2016-08-28T05:21:06.981Z,1012.89
2016-08-28T05:21:32.548Z,1012.9
2016-08-28T05:21:58.118Z,1012.92
2016-08-28T05:22:23.807Z,1012.94
2016-08-28T05:22:49.359Z,1012.9
2016-08-28T05:23:14.919Z,1012.91
2016-08-28T05:23:40.526Z,1012.93
2016-08-28T05:24:06.077Z,1012.94
2016-08-28T05:24:31.674Z,1012.97
2016-08-28T05:24:57.238Z,1012.99
2016-08-28T05:25:22.789Z,1013.02
2016-08-28T05:25:48.370Z,1013.06
2016-08-28T05:26:13.923Z,1013
2016-08-28T05:26:39.569Z,1013.03
2016-08-28T05:27:05.133Z,1013.06
2016-08-28T05:27:30.719Z,1013.01
2016-08-28T05:27:56.282Z,1012.96
2016-08-28T05:28:21.859Z,1012.95
2016-08-28T05:28:47.570Z,1012.91
2016-08-28T05:29:13.251Z,1012.87
2016-08-28T05:29:38.865Z,1012.81
2016-08-28T05:30:04.451Z,1012.79
2016-08-28T05:30:30.019Z,1012.82
2016-08-28T05:30:55.668Z,1012.77
2016-08-28T05:31:21.319Z,1012.8
2016-08-28T05:31:46.885Z,1012.79
2016-08-28T05:32:12.526Z,1012.84
2016-08-28T05:32:38.119Z,1012.85
2016-08-28T05:33:03.679Z,1012.87
2016-08-28T05:33:29.240Z,1012.87
2016-08-28T05:33:54.808Z,1012.91
2016-08-28T05:34:20.380Z,1012.91
2016-08-28T05:34:45.997Z,1012.88
2016-08-28T05:35:11.581Z,1012.89
2016-08-28T05:35:37.156Z,1012.9
2016-08-28T05:36:02.811Z,1012.91
2016-08-28T05:36:28.409Z,1012.91
2016-08-28T05:36:53.970Z,1012.89
2016-08-28T05:37:19.548Z,1012.9
2016-08-28T05:37:45.137Z,1012.86
2016-08-28T05:38:11.757Z,1012.88
2016-08-28T05:38:37.316Z,1012.86
2016-08-28T05:39:02.882Z,1012.88
2016-08-28T05:39:28.460Z,1012.88
2016-08-28T05:39:54.035Z,1012.88
2016-08-28T05:40:19.693Z,1012.9
2016-08-28T05:40:45.249Z,1012.9
2016-08-28T05:41:58.756Z,1012.88
2016-08-28T05:42:24.322Z,1012.86
2016-08-28T05:42:49.900Z,1012.86
2016-08-28T05:43:15.457Z,1012.85
2016-08-28T05:43:41.009Z,1012.79
2016-08-28T05:44:06.571Z,1012.83
2016-08-28T05:44:32.122Z,1012.84
2016-08-28T05:44:57.696Z,1012.84
2016-08-28T05:45:23.266Z,1012.84
2016-08-28T05:45:48.843Z,1012.86
2016-08-28T05:46:14.404Z,1012.84
2016-08-28T05:46:39.966Z,1012.87
2016-08-28T05:47:05.536Z,1012.85
2016-08-28T05:47:31.109Z,1012.86
2016-08-28T05:47:56.737Z,1012.84
2016-08-28T05:48:22.344Z,1012.8
2016-08-28T05:48:47.919Z,1012.77
2016-08-28T05:49:13.598Z,1012.76
2016-08-28T05:49:39.173Z,1012.77
2016-08-28T05:50:04.724Z,1012.78
2016-08-28T05:50:30.266Z,1012.78
2016-08-28T05:50:55.848Z,1012.72
2016-08-28T05:51:21.415Z,1012.76
2016-08-28T05:51:46.977Z,1012.73
2016-08-28T05:52:12.546Z,1012.74
2016-08-28T05:52:38.109Z,1012.74
2016-08-28T05:53:03.711Z,1012.74
2016-08-28T05:53:29.268Z,1012.73
2016-08-28T05:53:54.873Z,1012.73
2016-08-28T05:54:20.449Z,1012.71
2016-08-28T05:54:46.022Z,1012.72
2016-08-28T05:55:11.679Z,1012.76
2016-08-28T05:55:37.238Z,1012.7
2016-08-28T05:56:02.809Z,1012.73
2016-08-28T05:56:28.349Z,1012.69
2016-08-28T05:56:53.898Z,1012.65
2016-08-28T05:57:19.467Z,1012.68
2016-08-28T05:57:45.034Z,1012.71
2016-08-28T05:58:10.594Z,1012.68
2016-08-28T05:58:36.333Z,1012.72
2016-08-28T05:59:01.899Z,1012.73
2016-08-28T05:59:27.479Z,1012.73
2016-08-28T05:59:53.028Z,1012.72
2016-08-28T06:01:06.651Z,1012.71
2016-08-28T06:01:33.589Z,1012.67
2016-08-28T06:01:59.087Z,1012.7
2016-08-28T06:02:24.713Z,1012.71
2016-08-28T06:02:50.367Z,1012.68
2016-08-28T06:03:15.928Z,1012.68
2016-08-28T06:03:41.712Z,1012.7
2016-08-28T06:04:07.461Z,1012.71
2016-08-28T06:04:32.995Z,1012.71
2016-08-28T06:04:58.658Z,1012.75
2016-08-28T06:05:24.217Z,1012.74
2016-08-28T06:05:49.772Z,1012.71
2016-08-28T06:06:15.359Z,1012.72
2016-08-28T06:06:40.924Z,1012.7
2016-08-28T06:07:06.510Z,1012.71
2016-08-28T06:07:32.044Z,1012.68
2016-08-28T06:07:57.621Z,1012.7
2016-08-28T06:08:23.174Z,1012.74
2016-08-28T06:08:48.695Z,1012.71
2016-08-28T06:09:14.274Z,1012.72
2016-08-28T06:09:39.825Z,1012.74
2016-08-28T06:10:05.413Z,1012.73
2016-08-28T06:10:30.978Z,1012.72
2016-08-28T06:10:56.570Z,1012.7
2016-08-28T06:11:22.148Z,1012.7
2016-08-28T06:11:47.716Z,1012.73
2016-08-28T06:12:13.354Z,1012.71
2016-08-28T06:12:38.930Z,1012.73
2016-08-28T06:13:04.476Z,1012.71
2016-08-28T06:13:30.108Z,1012.72
2016-08-28T06:13:55.724Z,1012.67
2016-08-28T06:14:21.297Z,1012.66
2016-08-28T06:14:46.925Z,1012.67
2016-08-28T06:15:12.491Z,1012.65
2016-08-28T06:15:38.040Z,1012.65
2016-08-28T06:16:03.689Z,1012.65
2016-08-28T06:16:29.251Z,1012.63
2016-08-28T06:16:54.811Z,1012.66
2016-08-28T06:17:20.423Z,1012.64
2016-08-28T06:17:45.924Z,1012.6
2016-08-28T06:18:11.635Z,1012.62
2016-08-28T06:18:37.202Z,1012.69
2016-08-28T06:19:02.889Z,1012.63
2016-08-28T06:19:28.470Z,1012.67
2016-08-28T06:19:55.355Z,1012.66
2016-08-28T06:20:20.953Z,1012.65
2016-08-28T06:20:46.520Z,1012.61
2016-08-28T06:21:18.958Z,1012.6
2016-08-28T06:21:44.517Z,1012.6
2016-08-28T06:22:10.297Z,1012.57
2016-08-28T06:22:35.805Z,1012.58
2016-08-28T06:23:01.470Z,1012.62
2016-08-28T06:23:27.103Z,1012.61
2016-08-28T06:23:52.659Z,1012.63
2016-08-28T06:24:18.302Z,1012.59
2016-08-28T06:24:43.845Z,1012.64
2016-08-28T06:25:09.509Z,1012.61
2016-08-28T06:25:35.024Z,1012.6
2016-08-28T06:26:00.577Z,1012.64
2016-08-28T06:26:26.132Z,1012.57
2016-08-28T06:26:51.699Z,1012.64
2016-08-28T06:27:17.552Z,1012.65
2016-08-28T06:27:43.125Z,1012.62
2016-08-28T06:28:08.657Z,1012.61
2016-08-28T06:28:34.205Z,1012.64
2016-08-28T06:28:59.752Z,1012.63
2016-08-28T06:29:25.326Z,1012.61
2016-08-28T06:29:51.022Z,1012.62
2016-08-28T06:30:16.623Z,1012.64
2016-08-28T06:30:42.306Z,1012.65
2016-08-28T06:31:07.900Z,1012.59
2016-08-28T06:31:33.449Z,1012.61
2016-08-28T06:31:58.998Z,1012.62
2016-08-28T06:32:24.662Z,1012.64
2016-08-28T06:32:50.257Z,1012.67
2016-08-28T06:33:15.892Z,1012.65
2016-08-28T06:33:41.347Z,1012.62
2016-08-28T06:34:07.177Z,1012.62
2016-08-28T06:34:32.729Z,1012.63
2016-08-28T06:34:58.298Z,1012.59
2016-08-28T06:35:23.842Z,1012.62
2016-08-28T06:35:49.440Z,1012.61
2016-08-28T06:36:15.045Z,1012.54
2016-08-28T06:36:40.724Z,1012.58
2016-08-28T06:37:06.300Z,1012.59
2016-08-28T06:37:31.934Z,1012.58
2016-08-28T06:37:57.621Z,1012.55
2016-08-28T06:38:23.190Z,1012.55
2016-08-28T06:38:48.846Z,1012.57
2016-08-28T06:39:14.379Z,1012.58
2016-08-28T06:39:39.924Z,1012.58
2016-08-28T06:40:05.513Z,1012.57
2016-08-28T06:40:31.044Z,1012.57
2016-08-28T06:40:56.610Z,1012.58
2016-08-28T06:41:22.280Z,1012.56
2016-08-28T06:41:47.826Z,1012.59
2016-08-28T06:42:13.649Z,1012.59
2016-08-28T06:42:39.172Z,1012.56
2016-08-28T06:43:04.714Z,1012.56
2016-08-28T06:43:30.263Z,1012.55
2016-08-28T06:43:55.879Z,1012.55
2016-08-28T06:44:21.415Z,1012.61
2016-08-28T06:44:46.955Z,1012.59
2016-08-28T06:45:12.521Z,1012.55
2016-08-28T06:45:38.128Z,1012.57
2016-08-28T06:46:03.688Z,1012.61
2016-08-28T06:46:29.309Z,1012.55
2016-08-28T06:46:54.819Z,1012.51
2016-08-28T06:47:20.453Z,1012.49
2016-08-28T06:47:46.033Z,1012.49
2016-08-28T06:48:11.599Z,1012.54
2016-08-28T06:48:37.231Z,1012.53
2016-08-28T06:49:02.951Z,1012.52
2016-08-28T06:49:29.054Z,1012.49
2016-08-28T06:49:54.634Z,1012.53
2016-08-28T06:50:20.217Z,1012.51
2016-08-28T06:50:45.777Z,1012.5
2016-08-28T06:51:11.337Z,1012.5
2016-08-28T06:51:36.899Z,1012.52
2016-08-28T06:52:02.495Z,1012.55
2016-08-28T06:52:28.048Z,1012.48
2016-08-28T06:52:53.684Z,1012.51
2016-08-28T06:53:19.270Z,1012.57
2016-08-28T06:53:44.854Z,1012.55
2016-08-28T06:54:10.578Z,1012.52
2016-08-28T06:54:36.168Z,1012.56
2016-08-28T06:55:01.744Z,1012.53
2016-08-28T06:55:27.285Z,1012.58
2016-08-28T06:55:52.833Z,1012.56
2016-08-28T06:56:18.623Z,1012.55
2016-08-28T06:56:44.203Z,1012.51
2016-08-28T06:57:09.757Z,1012.54
2016-08-28T06:57:35.319Z,1012.52
2016-08-28T06:58:00.864Z,1012.53
2016-08-28T06:58:26.424Z,1012.51
2016-08-28T06:58:52.033Z,1012.48
2016-08-28T06:59:17.580Z,1012.48
2016-08-28T06:59:43.153Z,1012.47
2016-08-28T07:00:08.764Z,1012.48
2016-08-28T07:00:34.302Z,1012.48
2016-08-28T07:00:59.964Z,1012.49
2016-08-28T07:01:25.495Z,1012.49
2016-08-28T07:01:51.066Z,1012.49
2016-08-28T07:02:16.738Z,1012.48
2016-08-28T07:02:42.293Z,1012.47
2016-08-28T07:03:07.855Z,1012.47
2016-08-28T07:03:33.414Z,1012.46
2016-08-28T07:03:58.962Z,1012.46
2016-08-28T07:04:24.647Z,1012.44
2016-08-28T07:04:50.251Z,1012.41
2016-08-28T07:05:15.785Z,1012.4
2016-08-28T07:05:41.321Z,1012.4
2016-08-28T07:06:06.913Z,1012.44
2016-08-28T07:06:32.519Z,1012.37
2016-08-28T07:06:58.066Z,1012.4
2016-08-28T07:07:23.669Z,1012.39
2016-08-28T07:07:49.336Z,1012.36
2016-08-28T07:08:14.892Z,1012.33
2016-08-28T07:08:40.529Z,1012.35
2016-08-28T07:09:06.111Z,1012.37
2016-08-28T07:09:31.825Z,1012.31
2016-08-28T07:09:57.666Z,1012.32
2016-08-28T07:10:23.393Z,1012.31
2016-08-28T07:10:49.043Z,1012.33
2016-08-28T07:11:14.593Z,1012.33
2016-08-28T07:11:40.168Z,1012.37
2016-08-28T07:12:05.768Z,1012.35
2016-08-28T07:12:31.337Z,1012.38
2016-08-28T07:12:56.997Z,1012.4
2016-08-28T07:13:22.568Z,1012.38
2016-08-28T07:13:48.133Z,1012.35
2016-08-28T07:14:13.902Z,1012.4
2016-08-28T07:14:39.474Z,1012.32
2016-08-28T07:15:05.020Z,1012.43
2016-08-28T07:15:30.591Z,1012.42
2016-08-28T07:15:56.132Z,1012.42
2016-08-28T07:16:21.704Z,1012.42
2016-08-28T07:16:47.269Z,1012.42
2016-08-28T07:17:12.850Z,1012.44
2016-08-28T07:17:38.406Z,1012.43
2016-08-28T07:18:04.056Z,1012.42
2016-08-28T07:18:29.609Z,1012.43
2016-08-28T07:18:55.172Z,1012.45
2016-08-28T07:19:20.734Z,1012.44
2016-08-28T07:19:46.372Z,1012.44
2016-08-28T07:20:11.957Z,1012.43
2016-08-28T07:20:37.509Z,1012.44
2016-08-28T07:21:03.091Z,1012.42
2016-08-28T07:21:28.695Z,1012.45
2016-08-28T07:21:54.242Z,1012.43
2016-08-28T07:22:19.793Z,1012.41
2016-08-28T07:22:45.415Z,1012.38
2016-08-28T07:23:10.967Z,1012.4
2016-08-28T07:23:36.540Z,1012.43
2016-08-28T07:24:02.091Z,1012.44
2016-08-28T07:24:27.808Z,1012.41
2016-08-28T07:24:53.379Z,1012.4
2016-08-28T07:25:19.271Z,1012.39
2016-08-28T07:25:44.800Z,1012.34
2016-08-28T07:26:10.368Z,1012.35
2016-08-28T07:26:36.530Z,1012.36
2016-08-28T07:27:02.103Z,1012.36
2016-08-28T07:27:27.654Z,1012.34
2016-08-28T07:27:53.247Z,1012.31
2016-08-28T07:28:18.803Z,1012.33
2016-08-28T07:28:44.465Z,1012.32
2016-08-28T07:29:10.154Z,1012.27
2016-08-28T07:29:35.735Z,1012.31
2016-08-28T07:30:01.290Z,1012.31
2016-08-28T07:30:26.878Z,1012.3
2016-08-28T07:30:52.438Z,1012.3
2016-08-28T07:31:18.006Z,1012.27
2016-08-28T07:31:43.576Z,1012.27
2016-08-28T07:32:09.144Z,1012.29
2016-08-28T07:32:34.739Z,1012.3
2016-08-28T07:33:00.348Z,1012.32
2016-08-28T07:33:25.941Z,1012.3
2016-08-28T07:33:51.495Z,1012.31
2016-08-28T07:34:17.075Z,1012.27
2016-08-28T07:34:42.690Z,1012.29
2016-08-28T07:35:08.234Z,1012.22
2016-08-28T07:35:33.873Z,1012.2
2016-08-28T07:35:59.719Z,1012.21
2016-08-28T07:36:25.297Z,1012.25
2016-08-28T07:36:50.845Z,1012.25
2016-08-28T07:37:16.434Z,1012.25
2016-08-28T07:37:41.998Z,1012.26
2016-08-28T07:38:07.568Z,1012.23
2016-08-28T07:38:33.089Z,1012.23
2016-08-28T07:38:58.645Z,1012.23
2016-08-28T07:39:24.388Z,1012.2
2016-08-28T07:39:49.976Z,1012.14
2016-08-28T07:40:15.557Z,1012.23
2016-08-28T07:40:41.113Z,1012.17
2016-08-28T07:41:06.653Z,1012.19
2016-08-28T07:42:04.778Z,1012.23
2016-08-28T07:42:30.410Z,1012.26
2016-08-28T07:42:55.975Z,1012.25
2016-08-28T07:43:21.537Z,1012.19
2016-08-28T07:43:47.153Z,1012.18
2016-08-28T07:44:12.755Z,1012.22
2016-08-28T07:44:38.331Z,1012.23
2016-08-28T07:45:04.010Z,1012.21
2016-08-28T07:45:29.575Z,1012.21
2016-08-28T07:45:55.131Z,1012.22
2016-08-28T07:46:20.701Z,1012.21
2016-08-28T07:46:46.274Z,1012.25
2016-08-28T07:47:11.835Z,1012.24
2016-08-28T07:47:37.396Z,1012.22
2016-08-28T07:48:02.969Z,1012.19
2016-08-28T07:48:28.510Z,1012.22
2016-08-28T07:48:54.051Z,1012.22
2016-08-28T07:49:19.629Z,1012.19
2016-08-28T07:49:45.187Z,1012.22
2016-08-28T07:50:10.751Z,1012.2
2016-08-28T07:50:36.326Z,1012.2
2016-08-28T07:51:01.919Z,1012.18
2016-08-28T07:51:27.461Z,1012.18
2016-08-28T07:51:53.039Z,1012.18
2016-08-28T07:52:18.601Z,1012.18
2016-08-28T07:52:44.270Z,1012.13
2016-08-28T07:53:09.853Z,1012.09
2016-08-28T07:53:35.407Z,1012.15
2016-08-28T07:54:00.954Z,1012.13
2016-08-28T07:54:26.538Z,1012.17
2016-08-28T07:54:52.114Z,1012.13
2016-08-28T07:55:17.673Z,1012.1
2016-08-28T07:55:43.243Z,1012.09
2016-08-28T07:56:08.824Z,1012.06
2016-08-28T07:56:34.373Z,1012.08
2016-08-28T07:56:59.963Z,1012.05
2016-08-28T07:57:25.490Z,1012.1
2016-08-28T07:57:51.036Z,1012.03
2016-08-28T07:58:16.638Z,1012.02
2016-08-28T07:58:42.238Z,1012.03
2016-08-28T07:59:07.807Z,1012.02
2016-08-28T07:59:33.360Z,1012.06
2016-08-28T07:59:58.969Z,1012.04
2016-08-28T08:00:24.541Z,1012.01
2016-08-28T08:00:50.095Z,1011.98
2016-08-28T08:01:15.649Z,1011.97
2016-08-28T08:01:41.228Z,1012
2016-08-28T08:02:06.859Z,1011.93
2016-08-28T08:02:32.459Z,1011.96
2016-08-28T08:02:58.021Z,1011.96
2016-08-28T08:03:23.579Z,1011.91
2016-08-28T08:03:49.198Z,1011.91
2016-08-28T08:04:14.736Z,1011.96
2016-08-28T08:04:40.275Z,1011.92
2016-08-28T08:05:05.823Z,1011.9
2016-08-28T08:05:31.396Z,1011.85
2016-08-28T08:05:56.928Z,1011.9
2016-08-28T08:06:22.470Z,1011.89
2016-08-28T08:06:48.032Z,1011.85
2016-08-28T08:07:13.582Z,1011.83
2016-08-28T08:07:39.160Z,1011.82
2016-08-28T08:08:04.779Z,1011.86
2016-08-28T08:08:30.322Z,1011.79
2016-08-28T08:08:55.898Z,1011.81
2016-08-28T08:09:21.476Z,1011.79
2016-08-28T08:09:47.046Z,1011.81
2016-08-28T08:10:12.582Z,1011.8
2016-08-28T08:10:38.133Z,1011.82
2016-08-28T08:11:46.576Z,1011.76
2016-08-28T08:12:12.139Z,1011.71
2016-08-28T08:12:37.713Z,1011.69
2016-08-28T08:13:03.259Z,1011.72
2016-08-28T08:13:28.811Z,1011.74
2016-08-28T08:13:54.374Z,1011.72
2016-08-28T08:14:19.987Z,1011.73
2016-08-28T08:14:45.570Z,1011.77
2016-08-28T08:15:11.159Z,1011.75
2016-08-28T08:15:36.733Z,1011.72
2016-08-28T08:16:02.373Z,1011.71
2016-08-28T08:16:27.934Z,1011.73
2016-08-28T08:16:53.541Z,1011.71
2016-08-28T08:17:19.123Z,1011.7
2016-08-28T08:17:44.699Z,1011.65
2016-08-28T08:18:10.350Z,1011.68
2016-08-28T08:18:35.930Z,1011.62
2016-08-28T08:19:01.590Z,1011.66
2016-08-28T08:19:27.156Z,1011.63
2016-08-28T08:19:52.739Z,1011.65
2016-08-28T08:20:18.340Z,1011.62
2016-08-28T08:20:43.914Z,1011.63
2016-08-28T08:21:09.484Z,1011.63
2016-08-28T08:21:35.046Z,1011.62
2016-08-28T08:22:00.644Z,1011.62
2016-08-28T08:22:26.191Z,1011.63
2016-08-28T08:22:51.747Z,1011.59
2016-08-28T08:23:17.309Z,1011.59
2016-08-28T08:23:42.887Z,1011.65
2016-08-28T08:24:08.467Z,1011.7
2016-08-28T08:24:34.034Z,1011.68
2016-08-28T08:24:59.588Z,1011.72
2016-08-28T08:25:25.151Z,1011.73
2016-08-28T08:25:50.757Z,1011.73
2016-08-28T08:26:16.297Z,1011.74
2016-08-28T08:26:41.843Z,1011.74
2016-08-28T08:27:07.393Z,1011.74
2016-08-28T08:27:32.963Z,1011.71
2016-08-28T08:27:58.514Z,1011.75
2016-08-28T08:28:24.149Z,1011.77
2016-08-28T08:28:49.810Z,1011.73
2016-08-28T08:29:15.398Z,1011.79
2016-08-28T08:29:40.964Z,1011.73
2016-08-28T08:30:06.531Z,1011.74
2016-08-28T08:30:32.094Z,1011.75
2016-08-28T08:30:57.752Z,1011.71
2016-08-28T08:31:23.337Z,1011.72
2016-08-28T08:31:48.906Z,1011.73
2016-08-28T08:32:14.465Z,1011.69
2016-08-28T08:32:40.020Z,1011.73
2016-08-28T08:33:05.744Z,1011.7
2016-08-28T08:33:31.285Z,1011.73
2016-08-28T08:33:56.875Z,1011.71
2016-08-28T08:34:22.448Z,1011.69
2016-08-28T08:34:48.012Z,1011.66
2016-08-28T08:35:13.824Z,1011.68
2016-08-28T08:35:39.359Z,1011.66
2016-08-28T08:36:04.926Z,1011.68
2016-08-28T08:36:30.525Z,1011.69
2016-08-28T08:36:56.202Z,1011.67
2016-08-28T08:37:21.789Z,1011.7
2016-08-28T08:37:47.339Z,1011.67
2016-08-28T08:38:12.912Z,1011.67
2016-08-28T08:38:38.524Z,1011.62
2016-08-28T08:39:04.100Z,1011.66
2016-08-28T08:39:29.714Z,1011.65
2016-08-28T08:39:55.281Z,1011.63
2016-08-28T08:40:20.839Z,1011.62
2016-08-28T08:40:46.398Z,1011.65
2016-08-28T08:41:11.965Z,1011.68
2016-08-28T08:41:37.539Z,1011.62
2016-08-28T08:42:03.094Z,1011.68
2016-08-28T08:42:28.665Z,1011.62
2016-08-28T08:42:54.226Z,1011.66
2016-08-28T08:43:19.776Z,1011.67
2016-08-28T08:43:45.336Z,1011.62
2016-08-28T08:44:10.896Z,1011.64
2016-08-28T08:44:36.455Z,1011.62
2016-08-28T08:45:02.024Z,1011.64
2016-08-28T08:45:27.599Z,1011.68
2016-08-28T08:45:53.214Z,1011.67
2016-08-28T08:46:18.764Z,1011.66
2016-08-28T08:46:44.321Z,1011.62
2016-08-28T08:47:09.906Z,1011.64
2016-08-28T08:47:35.489Z,1011.65
2016-08-28T08:48:01.071Z,1011.68
2016-08-28T08:48:26.635Z,1011.65
2016-08-28T08:48:52.214Z,1011.62
2016-08-28T08:49:17.787Z,1011.67
2016-08-28T08:49:43.357Z,1011.67
2016-08-28T08:50:56.868Z,1011.72
2016-08-28T08:53:03.924Z,1011.72
2016-08-28T08:53:29.502Z,1011.69
2016-08-28T08:53:55.071Z,1011.75
2016-08-28T08:54:20.651Z,1011.75
2016-08-28T08:54:46.213Z,1011.76
2016-08-28T08:55:11.975Z,1011.72
2016-08-28T08:55:37.625Z,1011.7
2016-08-28T08:56:03.194Z,1011.73
2016-08-28T08:56:29.202Z,1011.77
2016-08-28T08:56:54.481Z,1011.8
2016-08-28T08:57:20.033Z,1011.75
2016-08-28T08:57:45.602Z,1011.75
2016-08-28T08:58:11.150Z,1011.79
2016-08-28T08:58:36.706Z,1011.79
2016-08-28T08:59:02.277Z,1011.81
2016-08-28T08:59:27.867Z,1011.78
2016-08-28T08:59:53.434Z,1011.77
2016-08-28T09:00:18.996Z,1011.76
2016-08-28T09:00:44.614Z,1011.82
2016-08-28T09:01:10.187Z,1011.8
2016-08-28T09:01:35.746Z,1011.8
2016-08-28T09:02:01.461Z,1011.79
2016-08-28T09:02:27.056Z,1011.79
2016-08-28T09:02:52.641Z,1011.82
2016-08-28T09:03:18.236Z,1011.84
2016-08-28T09:03:43.885Z,1011.79
2016-08-28T09:04:09.621Z,1011.79
2016-08-28T09:04:35.322Z,1011.83
2016-08-28T09:05:00.951Z,1011.83
2016-08-28T09:05:26.633Z,1011.84
2016-08-28T09:05:52.235Z,1011.84
2016-08-28T09:06:17.833Z,1011.87
2016-08-28T09:06:43.711Z,1011.85
2016-08-28T09:07:09.043Z,1011.82
2016-08-28T09:07:34.621Z,1011.84
2016-08-28T09:08:00.454Z,1011.81
2016-08-28T09:08:26.060Z,1011.84
2016-08-28T09:08:51.625Z,1011.82
2016-08-28T09:09:17.243Z,1011.83
2016-08-28T09:09:42.861Z,1011.81
2016-08-28T09:10:08.463Z,1011.84
2016-08-28T09:10:34.061Z,1011.82
2016-08-28T09:10:59.660Z,1011.79
2016-08-28T09:11:25.261Z,1011.82
2016-08-28T09:11:50.884Z,1011.75
2016-08-28T09:12:16.695Z,1011.78
2016-08-28T09:12:42.264Z,1011.78
2016-08-28T09:13:07.945Z,1011.77
2016-08-28T09:13:33.547Z,1011.8
2016-08-28T09:13:59.163Z,1011.79
2016-08-28T09:14:24.766Z,1011.78
2016-08-28T09:14:50.641Z,1011.78
2016-08-28T09:15:16.437Z,1011.78
2016-08-28T09:15:42.025Z,1011.77
2016-08-28T09:16:07.629Z,1011.79
2016-08-28T09:16:33.241Z,1011.8
2016-08-28T09:16:58.851Z,1011.8
2016-08-28T09:17:24.423Z,1011.77
2016-08-28T09:17:50.057Z,1011.76
2016-08-28T09:18:15.643Z,1011.77
2016-08-28T09:18:41.224Z,1011.76
2016-08-28T09:19:06.799Z,1011.76
2016-08-28T09:19:32.407Z,1011.79
2016-08-28T09:19:58.317Z,1011.81
2016-08-28T09:20:23.729Z,1011.79